sensor_id;sensor_type;location;lat;lon;timestamp;P1;durP1;ratioP1;P2;durP2;ratioP2
51272;SDS011;37345;59.828;30.328;2023-04-24T00:00:21;5.03;;;2.03;;
51272;SDS011;37345;59.828;30.328;2023-04-24T00:02:47;5.30;;;2.63;;
51272;SDS011;37345;59.828;30.328;2023-04-24T00:05:14;8.75;;;2.40;;
51272;SDS011;37345;59.828;30.328;2023-04-24T00:07:40;4.43;;;2.53;;
51272;SDS011;37345;59.828;30.328;2023-04-24T00:10:07;4.18;;;2.00;;
51272;SDS011;37345;59.828;30.328;2023-04-24T00:12:33;9.30;;;2.90;;
51272;SDS011;37345;59.828;30.328;2023-04-24T00:15:00;4.20;;;2.33;;
51272;SDS011;37345;59.828;30.328;2023-04-24T00:17:26;5.28;;;2.40;;
51272;SDS011;37345;59.828;30.328;2023-04-24T00:19:52;4.10;;;2.38;;
51272;SDS011;37345;59.828;30.328;2023-04-24T00:22:29;4.53;;;2.50;;
51272;SDS011;37345;59.828;30.328;2023-04-24T00:24:56;6.95;;;2.67;;
51272;SDS011;37345;59.828;30.328;2023-04-24T00:27:22;4.57;;;2.70;;
51272;SDS011;37345;59.828;30.328;2023-04-24T00:29:49;9.02;;;2.65;;
51272;SDS011;37345;59.828;30.328;2023-04-24T00:32:15;6.70;;;2.63;;
51272;SDS011;37345;59.828;30.328;2023-04-24T00:34:42;5.13;;;2.40;;
51272;SDS011;37345;59.828;30.328;2023-04-24T00:37:08;6.18;;;2.65;;
51272;SDS011;37345;59.828;30.328;2023-04-24T00:39:34;5.40;;;2.75;;
51272;SDS011;37345;59.828;30.328;2023-04-24T00:42:01;5.70;;;2.20;;
51272;SDS011;37345;59.828;30.328;2023-04-24T00:44:27;4.63;;;2.55;;
51272;SDS011;37345;59.828;30.328;2023-04-24T00:46:53;5.57;;;2.92;;
51272;SDS011;37345;59.828;30.328;2023-04-24T00:49:21;5.47;;;2.53;;
51272;SDS011;37345;59.828;30.328;2023-04-24T00:51:47;5.63;;;2.70;;
51272;SDS011;37345;59.828;30.328;2023-04-24T00:54:14;5.05;;;2.00;;
51272;SDS011;37345;59.828;30.328;2023-04-24T00:56:41;4.22;;;1.73;;
51272;SDS011;37345;59.828;30.328;2023-04-24T00:59:07;4.38;;;2.30;;
51272;SDS011;37345;59.828;30.328;2023-04-24T01:01:34;2.53;;;1.67;;
51272;SDS011;37345;59.828;30.328;2023-04-24T01:04:00;5.80;;;1.70;;
51272;SDS011;37345;59.828;30.328;2023-04-24T01:06:27;4.57;;;1.88;;
51272;SDS011;37345;59.828;30.328;2023-04-24T01:08:54;3.25;;;1.80;;
51272;SDS011;37345;59.828;30.328;2023-04-24T01:11:23;3.03;;;1.80;;
51272;SDS011;37345;59.828;30.328;2023-04-24T01:13:49;3.33;;;1.92;;
51272;SDS011;37345;59.828;30.328;2023-04-24T01:16:15;4.87;;;2.20;;
51272;SDS011;37345;59.828;30.328;2023-04-24T01:18:42;5.28;;;1.90;;
51272;SDS011;37345;59.828;30.328;2023-04-24T01:21:09;5.40;;;2.15;;
51272;SDS011;37345;59.828;30.328;2023-04-24T01:23:36;5.78;;;2.03;;
51272;SDS011;37345;59.828;30.328;2023-04-24T01:26:02;4.50;;;1.77;;
51272;SDS011;37345;59.828;30.328;2023-04-24T01:28:30;5.38;;;1.80;;
51272;SDS011;37345;59.828;30.328;2023-04-24T01:30:56;2.33;;;1.80;;
51272;SDS011;37345;59.828;30.328;2023-04-24T01:33:23;4.18;;;2.05;;
51272;SDS011;37345;59.828;30.328;2023-04-24T01:35:49;4.17;;;1.97;;
51272;SDS011;37345;59.828;30.328;2023-04-24T01:38:15;4.28;;;1.90;;
51272;SDS011;37345;59.828;30.328;2023-04-24T01:40:41;5.78;;;2.00;;
51272;SDS011;37345;59.828;30.328;2023-04-24T01:43:08;8.63;;;2.13;;
51272;SDS011;37345;59.828;30.328;2023-04-24T01:45:34;8.15;;;2.20;;
51272;SDS011;37345;59.828;30.328;2023-04-24T01:48:00;5.13;;;1.88;;
51272;SDS011;37345;59.828;30.328;2023-04-24T01:50:26;3.03;;;2.10;;
51272;SDS011;37345;59.828;30.328;2023-04-24T01:52:53;5.18;;;1.90;;
51272;SDS011;37345;59.828;30.328;2023-04-24T01:55:19;6.30;;;2.05;;
51272;SDS011;37345;59.828;30.328;2023-04-24T01:57:45;3.38;;;1.92;;
51272;SDS011;37345;59.828;30.328;2023-04-24T02:00:11;4.85;;;2.00;;
51272;SDS011;37345;59.828;30.328;2023-04-24T02:02:38;4.07;;;2.50;;
51272;SDS011;37345;59.828;30.328;2023-04-24T02:05:08;3.75;;;1.92;;
51272;SDS011;37345;59.828;30.328;2023-04-24T02:07:34;4.60;;;2.17;;
51272;SDS011;37345;59.828;30.328;2023-04-24T02:10:01;8.82;;;2.17;;
51272;SDS011;37345;59.828;30.328;2023-04-24T02:12:27;3.63;;;1.98;;
51272;SDS011;37345;59.828;30.328;2023-04-24T02:14:53;6.18;;;1.95;;
51272;SDS011;37345;59.828;30.328;2023-04-24T02:17:19;3.40;;;1.92;;
51272;SDS011;37345;59.828;30.328;2023-04-24T02:19:45;3.10;;;1.80;;
51272;SDS011;37345;59.828;30.328;2023-04-24T02:22:12;3.40;;;1.98;;
51272;SDS011;37345;59.828;30.328;2023-04-24T02:24:38;4.72;;;2.30;;
51272;SDS011;37345;59.828;30.328;2023-04-24T02:27:05;4.07;;;2.22;;
51272;SDS011;37345;59.828;30.328;2023-04-24T02:29:31;5.43;;;2.17;;
51272;SDS011;37345;59.828;30.328;2023-04-24T02:31:57;4.40;;;2.03;;
51272;SDS011;37345;59.828;30.328;2023-04-24T02:34:23;4.37;;;2.00;;
51272;SDS011;37345;59.828;30.328;2023-04-24T02:36:50;4.55;;;1.95;;
51272;SDS011;37345;59.828;30.328;2023-04-24T02:39:16;3.50;;;2.00;;
51272;SDS011;37345;59.828;30.328;2023-04-24T02:41:43;3.85;;;2.28;;
51272;SDS011;37345;59.828;30.328;2023-04-24T02:44:09;4.55;;;1.95;;
51272;SDS011;37345;59.828;30.328;2023-04-24T02:46:35;6.90;;;3.58;;
51272;SDS011;37345;59.828;30.328;2023-04-24T02:49:02;19.15;;;9.05;;
51272;SDS011;37345;59.828;30.328;2023-04-24T02:51:28;14.77;;;6.20;;
51272;SDS011;37345;59.828;30.328;2023-04-24T02:53:54;4.72;;;2.50;;
51272;SDS011;37345;59.828;30.328;2023-04-24T02:56:20;5.47;;;2.13;;
51272;SDS011;37345;59.828;30.328;2023-04-24T02:58:47;4.82;;;2.80;;
51272;SDS011;37345;59.828;30.328;2023-04-24T03:01:13;5.53;;;2.40;;
51272;SDS011;37345;59.828;30.328;2023-04-24T03:03:39;6.88;;;2.40;;
51272;SDS011;37345;59.828;30.328;2023-04-24T03:06:05;7.07;;;2.22;;
51272;SDS011;37345;59.828;30.328;2023-04-24T03:08:33;6.10;;;2.42;;
51272;SDS011;37345;59.828;30.328;2023-04-24T03:10:59;4.15;;;2.03;;
51272;SDS011;37345;59.828;30.328;2023-04-24T03:13:25;5.03;;;2.03;;
51272;SDS011;37345;59.828;30.328;2023-04-24T03:15:51;8.27;;;2.00;;
51272;SDS011;37345;59.828;30.328;2023-04-24T03:18:19;4.73;;;2.27;;
51272;SDS011;37345;59.828;30.328;2023-04-24T03:20:45;5.03;;;2.30;;
51272;SDS011;37345;59.828;30.328;2023-04-24T03:23:12;5.32;;;2.20;;
51272;SDS011;37345;59.828;30.328;2023-04-24T03:25:38;3.80;;;2.40;;
51272;SDS011;37345;59.828;30.328;2023-04-24T03:28:04;5.07;;;2.20;;
51272;SDS011;37345;59.828;30.328;2023-04-24T03:30:30;4.68;;;2.53;;
51272;SDS011;37345;59.828;30.328;2023-04-24T03:32:56;4.97;;;2.10;;
51272;SDS011;37345;59.828;30.328;2023-04-24T03:35:23;3.97;;;2.00;;
51272;SDS011;37345;59.828;30.328;2023-04-24T03:37:49;3.25;;;2.10;;
51272;SDS011;37345;59.828;30.328;2023-04-24T03:40:15;4.95;;;2.13;;
51272;SDS011;37345;59.828;30.328;2023-04-24T03:42:41;4.63;;;2.45;;
51272;SDS011;37345;59.828;30.328;2023-04-24T03:45:07;13.90;;;7.70;;
51272;SDS011;37345;59.828;30.328;2023-04-24T03:47:34;7.40;;;4.68;;
51272;SDS011;37345;59.828;30.328;2023-04-24T03:50:00;5.95;;;2.97;;
51272;SDS011;37345;59.828;30.328;2023-04-24T03:52:26;7.20;;;2.33;;
51272;SDS011;37345;59.828;30.328;2023-04-24T03:54:52;4.72;;;2.17;;
51272;SDS011;37345;59.828;30.328;2023-04-24T03:57:18;6.55;;;2.28;;
51272;SDS011;37345;59.828;30.328;2023-04-24T03:59:45;4.63;;;2.50;;
51272;SDS011;37345;59.828;30.328;2023-04-24T04:02:11;7.07;;;2.70;;
51272;SDS011;37345;59.828;30.328;2023-04-24T04:04:37;5.40;;;2.38;;
51272;SDS011;37345;59.828;30.328;2023-04-24T04:07:03;4.88;;;2.47;;
51272;SDS011;37345;59.828;30.328;2023-04-24T04:09:30;5.37;;;2.77;;
51272;SDS011;37345;59.828;30.328;2023-04-24T04:11:57;5.85;;;2.28;;
51272;SDS011;37345;59.828;30.328;2023-04-24T04:14:23;5.70;;;2.33;;
51272;SDS011;37345;59.828;30.328;2023-04-24T04:16:49;6.72;;;2.40;;
51272;SDS011;37345;59.828;30.328;2023-04-24T04:19:16;3.75;;;2.38;;
51272;SDS011;37345;59.828;30.328;2023-04-24T04:21:42;6.95;;;2.53;;
51272;SDS011;37345;59.828;30.328;2023-04-24T04:24:10;6.88;;;3.00;;
51272;SDS011;37345;59.828;30.328;2023-04-24T04:26:36;8.82;;;2.85;;
51272;SDS011;37345;59.828;30.328;2023-04-24T04:29:03;6.00;;;2.42;;
51272;SDS011;37345;59.828;30.328;2023-04-24T04:31:29;4.97;;;2.30;;
51272;SDS011;37345;59.828;30.328;2023-04-24T04:33:55;5.47;;;2.88;;
51272;SDS011;37345;59.828;30.328;2023-04-24T04:36:21;5.97;;;2.40;;
51272;SDS011;37345;59.828;30.328;2023-04-24T04:38:49;7.75;;;2.60;;
51272;SDS011;37345;59.828;30.328;2023-04-24T04:41:15;6.47;;;2.70;;
51272;SDS011;37345;59.828;30.328;2023-04-24T04:43:43;6.00;;;2.42;;
51272;SDS011;37345;59.828;30.328;2023-04-24T04:46:09;5.97;;;2.80;;
51272;SDS011;37345;59.828;30.328;2023-04-24T04:48:36;5.47;;;2.65;;
51272;SDS011;37345;59.828;30.328;2023-04-24T04:51:03;11.60;;;2.80;;
51272;SDS011;37345;59.828;30.328;2023-04-24T04:53:29;6.57;;;3.05;;
51272;SDS011;37345;59.828;30.328;2023-04-24T04:55:55;8.85;;;2.70;;
51272;SDS011;37345;59.828;30.328;2023-04-24T04:58:21;5.25;;;2.60;;
51272;SDS011;37345;59.828;30.328;2023-04-24T05:00:48;5.43;;;2.88;;
51272;SDS011;37345;59.828;30.328;2023-04-24T05:03:14;10.23;;;2.90;;
51272;SDS011;37345;59.828;30.328;2023-04-24T05:05:40;13.85;;;2.92;;
51272;SDS011;37345;59.828;30.328;2023-04-24T05:08:07;5.67;;;2.47;;
51272;SDS011;37345;59.828;30.328;2023-04-24T05:10:33;5.25;;;2.42;;
51272;SDS011;37345;59.828;30.328;2023-04-24T05:12:59;7.13;;;2.70;;
51272;SDS011;37345;59.828;30.328;2023-04-24T05:15:26;8.30;;;2.45;;
51272;SDS011;37345;59.828;30.328;2023-04-24T05:17:52;9.00;;;2.55;;
51272;SDS011;37345;59.828;30.328;2023-04-24T05:20:18;6.50;;;2.53;;
51272;SDS011;37345;59.828;30.328;2023-04-24T05:22:44;11.88;;;2.58;;
51272;SDS011;37345;59.828;30.328;2023-04-24T05:25:10;6.95;;;2.90;;
51272;SDS011;37345;59.828;30.328;2023-04-24T05:27:37;11.32;;;2.38;;
51272;SDS011;37345;59.828;30.328;2023-04-24T05:30:04;7.63;;;2.33;;
51272;SDS011;37345;59.828;30.328;2023-04-24T05:32:31;8.60;;;2.33;;
51272;SDS011;37345;59.828;30.328;2023-04-24T05:34:57;9.73;;;2.42;;
51272;SDS011;37345;59.828;30.328;2023-04-24T05:37:23;6.90;;;2.40;;
51272;SDS011;37345;59.828;30.328;2023-04-24T05:39:49;3.93;;;2.07;;
51272;SDS011;37345;59.828;30.328;2023-04-24T05:42:15;6.07;;;2.38;;
51272;SDS011;37345;59.828;30.328;2023-04-24T05:44:42;6.65;;;2.70;;
51272;SDS011;37345;59.828;30.328;2023-04-24T05:47:08;7.47;;;2.03;;
51272;SDS011;37345;59.828;30.328;2023-04-24T05:49:34;6.30;;;2.40;;
51272;SDS011;37345;59.828;30.328;2023-04-24T05:52:00;4.18;;;2.05;;
51272;SDS011;37345;59.828;30.328;2023-04-24T05:54:29;8.70;;;3.00;;
51272;SDS011;37345;59.828;30.328;2023-04-24T05:56:55;5.70;;;2.10;;
51272;SDS011;37345;59.828;30.328;2023-04-24T05:59:21;8.70;;;2.35;;
51272;SDS011;37345;59.828;30.328;2023-04-24T06:01:47;4.83;;;1.97;;
51272;SDS011;37345;59.828;30.328;2023-04-24T06:04:13;4.35;;;2.05;;
51272;SDS011;37345;59.828;30.328;2023-04-24T06:06:40;11.35;;;2.30;;
51272;SDS011;37345;59.828;30.328;2023-04-24T06:09:06;9.25;;;2.42;;
51272;SDS011;37345;59.828;30.328;2023-04-24T06:11:32;3.70;;;1.98;;
51272;SDS011;37345;59.828;30.328;2023-04-24T06:13:58;10.45;;;2.10;;
51272;SDS011;37345;59.828;30.328;2023-04-24T06:16:24;13.63;;;2.30;;
51272;SDS011;37345;59.828;30.328;2023-04-24T06:18:51;4.85;;;2.08;;
51272;SDS011;37345;59.828;30.328;2023-04-24T06:21:17;6.10;;;2.40;;
51272;SDS011;37345;59.828;30.328;2023-04-24T06:23:43;22.77;;;2.67;;
51272;SDS011;37345;59.828;30.328;2023-04-24T06:26:11;13.98;;;2.55;;
51272;SDS011;37345;59.828;30.328;2023-04-24T06:28:37;6.55;;;1.98;;
51272;SDS011;37345;59.828;30.328;2023-04-24T06:31:03;7.43;;;1.70;;
51272;SDS011;37345;59.828;30.328;2023-04-24T06:33:29;3.80;;;1.80;;
51272;SDS011;37345;59.828;30.328;2023-04-24T06:35:55;6.60;;;2.03;;
51272;SDS011;37345;59.828;30.328;2023-04-24T06:38:22;6.70;;;2.33;;
51272;SDS011;37345;59.828;30.328;2023-04-24T06:40:48;10.40;;;2.40;;
51272;SDS011;37345;59.828;30.328;2023-04-24T06:43:14;6.13;;;1.83;;
51272;SDS011;37345;59.828;30.328;2023-04-24T06:45:40;12.73;;;2.27;;
51272;SDS011;37345;59.828;30.328;2023-04-24T06:48:08;4.22;;;1.88;;
51272;SDS011;37345;59.828;30.328;2023-04-24T06:50:34;8.30;;;2.00;;
51272;SDS011;37345;59.828;30.328;2023-04-24T06:53:00;7.83;;;1.90;;
51272;SDS011;37345;59.828;30.328;2023-04-24T06:55:26;4.10;;;1.93;;
51272;SDS011;37345;59.828;30.328;2023-04-24T06:57:52;4.22;;;2.28;;
51272;SDS011;37345;59.828;30.328;2023-04-24T07:00:19;5.65;;;1.58;;
51272;SDS011;37345;59.828;30.328;2023-04-24T07:02:45;5.97;;;2.20;;
51272;SDS011;37345;59.828;30.328;2023-04-24T07:05:11;9.38;;;1.60;;
51272;SDS011;37345;59.828;30.328;2023-04-24T07:07:37;10.48;;;1.67;;
51272;SDS011;37345;59.828;30.328;2023-04-24T07:10:05;4.80;;;1.60;;
51272;SDS011;37345;59.828;30.328;2023-04-24T07:12:31;6.75;;;2.35;;
51272;SDS011;37345;59.828;30.328;2023-04-24T07:14:57;6.63;;;1.90;;
51272;SDS011;37345;59.828;30.328;2023-04-24T07:17:24;7.72;;;1.83;;
51272;SDS011;37345;59.828;30.328;2023-04-24T07:19:50;6.85;;;1.90;;
51272;SDS011;37345;59.828;30.328;2023-04-24T07:22:17;9.90;;;1.80;;
51272;SDS011;37345;59.828;30.328;2023-04-24T07:24:43;9.30;;;2.08;;
51272;SDS011;37345;59.828;30.328;2023-04-24T07:27:09;9.43;;;1.90;;
51272;SDS011;37345;59.828;30.328;2023-04-24T07:29:36;7.05;;;1.67;;
51272;SDS011;37345;59.828;30.328;2023-04-24T07:32:03;10.20;;;2.30;;
51272;SDS011;37345;59.828;30.328;2023-04-24T07:34:29;5.22;;;1.83;;
51272;SDS011;37345;59.828;30.328;2023-04-24T07:36:55;10.82;;;1.80;;
51272;SDS011;37345;59.828;30.328;2023-04-24T07:39:21;6.00;;;1.50;;
51272;SDS011;37345;59.828;30.328;2023-04-24T07:41:47;4.53;;;1.50;;
51272;SDS011;37345;59.828;30.328;2023-04-24T07:44:13;17.48;;;1.88;;
51272;SDS011;37345;59.828;30.328;2023-04-24T07:46:40;7.55;;;1.88;;
51272;SDS011;37345;59.828;30.328;2023-04-24T07:49:06;10.82;;;1.65;;
51272;SDS011;37345;59.828;30.328;2023-04-24T07:51:32;5.70;;;1.40;;
51272;SDS011;37345;59.828;30.328;2023-04-24T07:54:03;6.85;;;1.63;;
51272;SDS011;37345;59.828;30.328;2023-04-24T07:56:31;47.30;;;4.07;;
51272;SDS011;37345;59.828;30.328;2023-04-24T07:59:04;26.95;;;2.80;;
51272;SDS011;37345;59.828;30.328;2023-04-24T08:01:30;26.92;;;3.03;;
51272;SDS011;37345;59.828;30.328;2023-04-24T08:03:57;18.73;;;2.97;;
51272;SDS011;37345;59.828;30.328;2023-04-24T08:06:23;18.13;;;2.20;;
51272;SDS011;37345;59.828;30.328;2023-04-24T08:08:50;7.90;;;1.92;;
51272;SDS011;37345;59.828;30.328;2023-04-24T08:11:16;11.57;;;1.77;;
51272;SDS011;37345;59.828;30.328;2023-04-24T08:13:43;13.93;;;1.92;;
51272;SDS011;37345;59.828;30.328;2023-04-24T08:16:09;19.73;;;2.70;;
51272;SDS011;37345;59.828;30.328;2023-04-24T08:18:35;29.77;;;2.90;;
51272;SDS011;37345;59.828;30.328;2023-04-24T08:21:01;10.32;;;1.98;;
51272;SDS011;37345;59.828;30.328;2023-04-24T08:23:27;9.20;;;1.83;;
51272;SDS011;37345;59.828;30.328;2023-04-24T08:25:54;14.68;;;2.17;;
51272;SDS011;37345;59.828;30.328;2023-04-24T08:28:21;18.17;;;1.88;;
51272;SDS011;37345;59.828;30.328;2023-04-24T08:30:47;8.45;;;1.50;;
51272;SDS011;37345;59.828;30.328;2023-04-24T08:33:19;7.45;;;1.40;;
51272;SDS011;37345;59.828;30.328;2023-04-24T08:35:45;8.85;;;1.75;;
51272;SDS011;37345;59.828;30.328;2023-04-24T08:38:11;5.93;;;1.73;;
51272;SDS011;37345;59.828;30.328;2023-04-24T08:40:37;28.07;;;3.03;;
51272;SDS011;37345;59.828;30.328;2023-04-24T08:43:04;13.63;;;2.38;;
51272;SDS011;37345;59.828;30.328;2023-04-24T08:45:31;19.30;;;2.03;;
51272;SDS011;37345;59.828;30.328;2023-04-24T08:47:58;13.85;;;2.10;;
51272;SDS011;37345;59.828;30.328;2023-04-24T08:50:26;9.43;;;1.98;;
51272;SDS011;37345;59.828;30.328;2023-04-24T08:52:52;11.25;;;2.05;;
51272;SDS011;37345;59.828;30.328;2023-04-24T08:55:19;27.42;;;3.10;;
51272;SDS011;37345;59.828;30.328;2023-04-24T08:57:49;13.55;;;1.85;;
51272;SDS011;37345;59.828;30.328;2023-04-24T09:00:17;5.13;;;2.10;;
51272;SDS011;37345;59.828;30.328;2023-04-24T09:02:43;8.60;;;1.98;;
51272;SDS011;37345;59.828;30.328;2023-04-24T09:05:11;6.07;;;1.80;;
51272;SDS011;37345;59.828;30.328;2023-04-24T09:07:38;17.10;;;2.30;;
51272;SDS011;37345;59.828;30.328;2023-04-24T09:10:05;4.35;;;1.90;;
51272;SDS011;37345;59.828;30.328;2023-04-24T09:12:32;17.85;;;2.22;;
51272;SDS011;37345;59.828;30.328;2023-04-24T09:15:00;12.75;;;2.03;;
51272;SDS011;37345;59.828;30.328;2023-04-24T09:17:26;9.77;;;2.40;;
51272;SDS011;37345;59.828;30.328;2023-04-24T09:19:53;12.18;;;2.20;;
51272;SDS011;37345;59.828;30.328;2023-04-24T09:22:19;6.17;;;1.60;;
51272;SDS011;37345;59.828;30.328;2023-04-24T09:24:46;5.13;;;1.60;;
51272;SDS011;37345;59.828;30.328;2023-04-24T09:27:12;13.70;;;1.85;;
51272;SDS011;37345;59.828;30.328;2023-04-24T09:29:42;11.70;;;1.85;;
51272;SDS011;37345;59.828;30.328;2023-04-24T09:32:20;10.23;;;1.98;;
51272;SDS011;37345;59.828;30.328;2023-04-24T09:34:47;13.35;;;2.10;;
51272;SDS011;37345;59.828;30.328;2023-04-24T09:37:26;8.30;;;1.77;;
51272;SDS011;37345;59.828;30.328;2023-04-24T09:42:37;11.43;;;2.00;;
51272;SDS011;37345;59.828;30.328;2023-04-24T09:45:04;12.70;;;1.98;;
51272;SDS011;37345;59.828;30.328;2023-04-24T09:47:37;4.75;;;1.63;;
51272;SDS011;37345;59.828;30.328;2023-04-24T09:50:14;6.13;;;1.70;;
51272;SDS011;37345;59.828;30.328;2023-04-24T09:52:44;7.35;;;2.10;;
51272;SDS011;37345;59.828;30.328;2023-04-24T09:55:11;4.18;;;1.90;;
51272;SDS011;37345;59.828;30.328;2023-04-24T09:57:46;4.43;;;1.80;;
51272;SDS011;37345;59.828;30.328;2023-04-24T10:00:13;29.85;;;3.90;;
51272;SDS011;37345;59.828;30.328;2023-04-24T10:02:39;9.60;;;2.40;;
51272;SDS011;37345;59.828;30.328;2023-04-24T10:05:05;8.23;;;2.20;;
51272;SDS011;37345;59.828;30.328;2023-04-24T10:07:32;7.13;;;1.90;;
51272;SDS011;37345;59.828;30.328;2023-04-24T10:09:58;5.15;;;1.80;;
51272;SDS011;37345;59.828;30.328;2023-04-24T10:12:25;4.10;;;2.00;;
51272;SDS011;37345;59.828;30.328;2023-04-24T10:14:51;5.53;;;2.03;;
51272;SDS011;37345;59.828;30.328;2023-04-24T10:17:18;4.87;;;1.97;;
51272;SDS011;37345;59.828;30.328;2023-04-24T10:19:45;5.05;;;2.33;;
51272;SDS011;37345;59.828;30.328;2023-04-24T10:22:12;7.82;;;2.00;;
51272;SDS011;37345;59.828;30.328;2023-04-24T10:24:40;20.67;;;2.85;;
51272;SDS011;37345;59.828;30.328;2023-04-24T10:27:07;11.30;;;1.85;;
51272;SDS011;37345;59.828;30.328;2023-04-24T10:29:33;7.68;;;1.85;;
51272;SDS011;37345;59.828;30.328;2023-04-24T10:32:01;7.63;;;1.92;;
51272;SDS011;37345;59.828;30.328;2023-04-24T10:34:27;4.68;;;1.85;;
51272;SDS011;37345;59.828;30.328;2023-04-24T10:36:54;7.40;;;1.88;;
51272;SDS011;37345;59.828;30.328;2023-04-24T10:39:21;4.20;;;1.65;;
51272;SDS011;37345;59.828;30.328;2023-04-24T10:41:50;20.45;;;2.30;;
51272;SDS011;37345;59.828;30.328;2023-04-24T10:44:16;8.00;;;1.98;;
51272;SDS011;37345;59.828;30.328;2023-04-24T10:46:44;5.85;;;2.03;;
51272;SDS011;37345;59.828;30.328;2023-04-24T10:49:10;5.30;;;2.20;;
51272;SDS011;37345;59.828;30.328;2023-04-24T10:54:24;4.20;;;1.95;;
51272;SDS011;37345;59.828;30.328;2023-04-24T10:56:51;3.50;;;2.03;;
51272;SDS011;37345;59.828;30.328;2023-04-24T10:59:24;5.05;;;2.05;;
51272;SDS011;37345;59.828;30.328;2023-04-24T11:01:53;4.67;;;2.00;;
51272;SDS011;37345;59.828;30.328;2023-04-24T11:04:29;9.25;;;2.10;;
51272;SDS011;37345;59.828;30.328;2023-04-24T11:06:56;4.32;;;1.52;;
51272;SDS011;37345;59.828;30.328;2023-04-24T11:09:22;3.55;;;1.73;;
51272;SDS011;37345;59.828;30.328;2023-04-24T11:11:53;7.47;;;2.27;;
51272;SDS011;37345;59.828;30.328;2023-04-24T11:14:28;9.00;;;1.97;;
51272;SDS011;37345;59.828;30.328;2023-04-24T11:16:54;6.47;;;2.00;;
51272;SDS011;37345;59.828;30.328;2023-04-24T11:19:24;7.65;;;2.05;;
51272;SDS011;37345;59.828;30.328;2023-04-24T11:21:58;6.32;;;1.90;;
51272;SDS011;37345;59.828;30.328;2023-04-24T11:24:48;9.05;;;1.77;;
51272;SDS011;37345;59.828;30.328;2023-04-24T11:27:16;17.58;;;2.00;;
51272;SDS011;37345;59.828;30.328;2023-04-24T11:32:17;11.77;;;2.20;;
51272;SDS011;37345;59.828;30.328;2023-04-24T11:34:48;6.03;;;1.98;;
51272;SDS011;37345;59.828;30.328;2023-04-24T11:37:14;7.85;;;2.13;;
51272;SDS011;37345;59.828;30.328;2023-04-24T11:39:40;7.43;;;2.03;;
51272;SDS011;37345;59.828;30.328;2023-04-24T11:42:07;3.00;;;1.77;;
51272;SDS011;37345;59.828;30.328;2023-04-24T11:44:34;8.23;;;1.70;;
51272;SDS011;37345;59.828;30.328;2023-04-24T11:47:03;7.30;;;2.00;;
51272;SDS011;37345;59.828;30.328;2023-04-24T11:49:29;4.82;;;1.90;;
51272;SDS011;37345;59.828;30.328;2023-04-24T11:51:55;5.85;;;1.67;;
51272;SDS011;37345;59.828;30.328;2023-04-24T11:54:21;4.65;;;2.20;;
51272;SDS011;37345;59.828;30.328;2023-04-24T11:56:48;7.80;;;2.20;;
51272;SDS011;37345;59.828;30.328;2023-04-24T11:59:15;7.20;;;1.77;;
51272;SDS011;37345;59.828;30.328;2023-04-24T12:01:45;9.20;;;2.42;;
51272;SDS011;37345;59.828;30.328;2023-04-24T12:04:11;5.00;;;2.30;;
51272;SDS011;37345;59.828;30.328;2023-04-24T12:06:37;4.30;;;2.00;;
51272;SDS011;37345;59.828;30.328;2023-04-24T12:09:04;3.22;;;1.88;;
51272;SDS011;37345;59.828;30.328;2023-04-24T12:11:30;6.88;;;2.25;;
51272;SDS011;37345;59.828;30.328;2023-04-24T12:13:56;4.97;;;2.03;;
51272;SDS011;37345;59.828;30.328;2023-04-24T12:16:22;5.88;;;2.17;;
51272;SDS011;37345;59.828;30.328;2023-04-24T12:18:50;9.03;;;2.20;;
51272;SDS011;37345;59.828;30.328;2023-04-24T12:23:43;9.95;;;2.08;;
51272;SDS011;37345;59.828;30.328;2023-04-24T12:26:21;6.55;;;1.88;;
51272;SDS011;37345;59.828;30.328;2023-04-24T12:28:48;5.28;;;1.95;;
51272;SDS011;37345;59.828;30.328;2023-04-24T12:31:15;3.75;;;2.20;;
51272;SDS011;37345;59.828;30.328;2023-04-24T12:33:41;2.50;;;1.80;;
51272;SDS011;37345;59.828;30.328;2023-04-24T12:36:11;4.18;;;2.10;;
51272;SDS011;37345;59.828;30.328;2023-04-24T12:38:38;6.93;;;1.92;;
51272;SDS011;37345;59.828;30.328;2023-04-24T12:41:10;8.30;;;1.92;;
51272;SDS011;37345;59.828;30.328;2023-04-24T12:43:36;7.60;;;2.55;;
51272;SDS011;37345;59.828;30.328;2023-04-24T12:46:03;11.87;;;2.93;;
51272;SDS011;37345;59.828;30.328;2023-04-24T12:48:30;9.20;;;3.10;;
51272;SDS011;37345;59.828;30.328;2023-04-24T12:50:59;7.43;;;2.50;;
51272;SDS011;37345;59.828;30.328;2023-04-24T12:53:26;6.03;;;2.65;;
51272;SDS011;37345;59.828;30.328;2023-04-24T12:55:54;7.30;;;2.35;;
51272;SDS011;37345;59.828;30.328;2023-04-24T12:58:20;4.00;;;2.30;;
51272;SDS011;37345;59.828;30.328;2023-04-24T13:00:46;7.15;;;2.78;;
51272;SDS011;37345;59.828;30.328;2023-04-24T13:03:13;3.95;;;2.70;;
51272;SDS011;37345;59.828;30.328;2023-04-24T13:05:39;5.50;;;2.38;;
51272;SDS011;37345;59.828;30.328;2023-04-24T13:08:06;7.30;;;2.45;;
51272;SDS011;37345;59.828;30.328;2023-04-24T13:10:32;5.95;;;2.38;;
51272;SDS011;37345;59.828;30.328;2023-04-24T13:12:59;7.82;;;2.92;;
51272;SDS011;37345;59.828;30.328;2023-04-24T13:15:25;3.58;;;2.35;;
51272;SDS011;37345;59.828;30.328;2023-04-24T13:17:51;6.85;;;2.70;;
51272;SDS011;37345;59.828;30.328;2023-04-24T13:20:17;6.50;;;2.63;;
51272;SDS011;37345;59.828;30.328;2023-04-24T13:22:43;5.35;;;2.60;;
51272;SDS011;37345;59.828;30.328;2023-04-24T13:25:10;8.70;;;2.67;;
51272;SDS011;37345;59.828;30.328;2023-04-24T13:27:38;9.32;;;2.90;;
51272;SDS011;37345;59.828;30.328;2023-04-24T13:30:04;5.05;;;2.67;;
51272;SDS011;37345;59.828;30.328;2023-04-24T13:32:31;6.80;;;2.90;;
51272;SDS011;37345;59.828;30.328;2023-04-24T13:34:58;4.72;;;2.85;;
51272;SDS011;37345;59.828;30.328;2023-04-24T13:37:24;5.72;;;3.13;;
51272;SDS011;37345;59.828;30.328;2023-04-24T13:39:50;9.20;;;3.10;;
51272;SDS011;37345;59.828;30.328;2023-04-24T13:42:16;9.45;;;3.45;;
51272;SDS011;37345;59.828;30.328;2023-04-24T13:44:43;12.33;;;3.53;;
51272;SDS011;37345;59.828;30.328;2023-04-24T13:47:10;7.32;;;3.28;;
51272;SDS011;37345;59.828;30.328;2023-04-24T13:49:36;8.05;;;3.08;;
51272;SDS011;37345;59.828;30.328;2023-04-24T13:52:02;8.43;;;3.78;;
51272;SDS011;37345;59.828;30.328;2023-04-24T13:54:28;11.57;;;3.63;;
51272;SDS011;37345;59.828;30.328;2023-04-24T13:56:57;6.50;;;3.42;;
51272;SDS011;37345;59.828;30.328;2023-04-24T13:59:23;7.13;;;3.58;;
51272;SDS011;37345;59.828;30.328;2023-04-24T14:01:50;11.00;;;3.63;;
51272;SDS011;37345;59.828;30.328;2023-04-24T14:04:16;10.43;;;3.63;;
51272;SDS011;37345;59.828;30.328;2023-04-24T14:06:43;11.07;;;4.10;;
51272;SDS011;37345;59.828;30.328;2023-04-24T14:09:09;7.07;;;3.65;;
51272;SDS011;37345;59.828;30.328;2023-04-24T14:11:38;9.98;;;3.90;;
51272;SDS011;37345;59.828;30.328;2023-04-24T14:14:04;10.33;;;4.33;;
51272;SDS011;37345;59.828;30.328;2023-04-24T14:16:31;7.88;;;3.50;;
51272;SDS011;37345;59.828;30.328;2023-04-24T14:18:57;10.60;;;3.93;;
51272;SDS011;37345;59.828;30.328;2023-04-24T14:21:23;10.73;;;4.28;;
51272;SDS011;37345;59.828;30.328;2023-04-24T14:23:49;7.72;;;3.92;;
51272;SDS011;37345;59.828;30.328;2023-04-24T14:26:16;8.20;;;4.13;;
51272;SDS011;37345;59.828;30.328;2023-04-24T14:28:42;9.95;;;4.65;;
51272;SDS011;37345;59.828;30.328;2023-04-24T14:31:08;6.28;;;3.88;;
51272;SDS011;37345;59.828;30.328;2023-04-24T14:33:34;6.85;;;4.43;;
51272;SDS011;37345;59.828;30.328;2023-04-24T14:36:00;7.03;;;3.97;;
51272;SDS011;37345;59.828;30.328;2023-04-24T14:38:27;7.82;;;4.30;;
51272;SDS011;37345;59.828;30.328;2023-04-24T14:40:55;8.82;;;4.93;;